Time;durP1;ratioP1;P1;durP2;ratioP2;P2;SDS_P1;SDS_P2;PMS_P1;PMS_P2;Temp;Humidity;BMP_temperature;BMP_pressure;BME280_temperature;BME280_humidity;BME280_pressure;Samples;Min_cycle;Max_cycle;Signal;HPM_P1;HPM_P2
2022/09/05 00:00:41;;;;;;;;;;;;;;;18.99;70.27;100258.38;1084316;54;19972;-80
2022/09/05 00:01:52;;;;;;;;;;;;;;;18.94;70.29;100250.84;1084155;54;19969;-79
2022/09/05 00:03:02;;;;;;;;;;;;;;;18.84;71.05;100253.84;1084492;54;19951;-80
2022/09/05 00:04:11;;;;;;;;;;;;;;;18.65;71.63;100249.94;1084836;54;19951;-80
2022/09/05 00:05:29;;;;;;;;;;;;;;;18.50;72.29;100250.00;1084495;54;19956;-79
2022/09/05 00:06:35;;;;;;;;;;;;;;;18.43;72.52;100253.66;1084887;47;19946;-79
2022/09/05 00:07:39;;;;;;;;;;;;;;;18.37;72.71;100247.94;1084735;54;19992;-79
2022/09/05 00:08:53;;;;;;;;;;;;;;;18.30;72.55;100254.34;1085225;54;19953;-79
2022/09/05 00:09:59;;;;;;;;;;;;;;;18.32;72.45;100252.28;1085611;54;19953;-81
2022/09/05 00:11:07;;;;;;;;;;;;;;;18.32;72.16;100252.28;1085544;54;20413;-80
2022/09/05 00:12:09;;;;;;;;;;;;;;;18.31;71.96;100251.44;1085681;46;19970;-79
2022/09/05 00:13:17;;;;;;;;;;;;;;;18.29;71.76;100252.66;1086442;39;20587;-80
2022/09/05 00:14:33;;;;;;;;;;;;;;;18.24;71.71;100245.13;1085665;54;19954;-80
2022/09/05 00:15:40;;;;;;;;;;;;;;;18.15;72.06;100257.06;1085470;54;19950;-81
2022/09/05 00:16:56;;;;;;;;;;;;;;;18.09;72.42;100253.25;1085693;54;19946;-78
2022/09/05 00:18:23;;;;;;;;;;;;;;;18.02;72.99;100257.75;1085803;54;19950;-80
2022/09/05 00:19:38;;;;;;;;;;;;;;;18.04;73.54;100266.53;1085848;54;19951;-79
2022/09/05 00:20:45;;;;;;;;;;;;;;;18.03;73.29;100262.97;1086127;46;19939;-80
2022/09/05 00:21:58;;;;;;;;;;;;;;;18.07;73.16;100263.41;1085859;54;19950;-80
2022/09/05 00:23:07;;;;;;;;;;;;;;;18.03;73.40;100259.44;1085825;54;19946;-79
2022/09/05 00:24:16;;;;;;;;;;;;;;;18.00;73.81;100265.22;1085766;54;19950;-79
2022/09/05 00:25:26;;;;;;;;;;;;;;;17.97;73.81;100260.16;1088161;39;20391;-80
2022/09/05 00:26:32;;;;;;;;;;;;;;;17.95;73.59;100259.50;1085349;54;20017;-79
2022/09/05 00:27:41;;;;;;;;;;;;;;;17.91;73.58;100262.56;1085540;54;19951;-79
2022/09/05 00:28:47;;;;;;;;;;;;;;;17.96;73.72;100263.88;1087147;31;20421;-80
2022/09/05 00:30:03;;;;;;;;;;;;;;;17.94;73.36;100255.94;1085577;46;19990;-79
2022/09/05 00:31:13;;;;;;;;;;;;;;;17.91;73.27;100262.56;1085244;54;20009;-79
2022/09/05 00:32:21;;;;;;;;;;;;;;;17.98;73.11;100262.69;1084903;54;20001;-80
2022/09/05 00:33:27;;;;;;;;;;;;;;;18.02;72.71;100253.16;1084706;54;19999;-79
2022/09/05 00:34:45;;;;;;;;;;;;;;;18.05;72.22;100263.63;1084845;54;19950;-79
2022/09/05 00:35:53;;;;;;;;;;;;;;;18.03;71.95;100251.31;1085362;54;19995;-79
2022/09/05 00:36:57;;;;;;;;;;;;;;;18.03;71.87;100264.84;1085186;54;19938;-80
2022/09/05 00:38:08;;;;;;;;;;;;;;;17.99;72.17;100253.56;1085464;54;19950;-79
2022/09/05 00:39:15;;;;;;;;;;;;;;;17.97;72.40;100255.63;1085114;54;19977;-80
2022/09/05 00:40:20;;;;;;;;;;;;;;;18.01;71.90;100264.19;1084559;54;19939;-78
2022/09/05 00:41:24;;;;;;;;;;;;;;;18.03;72.04;100260.25;1084007;54;19946;-78
2022/09/05 00:42:25;;;;;;;;;;;;;;;18.04;71.65;100251.13;1083968;54;19970;-79
2022/09/05 00:43:30;;;;;;;;;;;;;;;18.08;71.53;100254.28;1083821;54;19946;-79
2022/09/05 00:44:33;;;;;;;;;;;;;;;18.09;71.67;100253.25;1084026;54;19954;-79
2022/09/05 00:45:38;;;;;;;;;;;;;;;18.06;71.85;100254.47;1083930;54;19953;-79
2022/09/05 00:46:42;;;;;;;;;;;;;;;18.02;71.92;100255.03;1083758;54;19954;-78
2022/09/05 00:47:49;;;;;;;;;;;;;;;17.90;71.85;100255.50;1083683;54;19950;-79
2022/09/05 00:48:52;;;;;;;;;;;;;;;17.92;71.69;100258.84;1083687;54;19946;-78
2022/09/05 00:50:02;;;;;;;;;;;;;;;17.93;71.85;100260.53;1083796;54;19950;-78
2022/09/05 00:51:16;;;;;;;;;;;;;;;17.88;71.80;100254.00;1083670;54;19947;-78
2022/09/05 00:52:22;;;;;;;;;;;;;;;17.85;71.56;100255.22;1083957;54;19947;-79
2022/09/05 00:53:28;;;;;;;;;;;;;;;17.83;71.64;100261.81;1083777;54;19977;-79
2022/09/05 00:54:43;;;;;;;;;;;;;;;17.81;71.68;100263.88;1084313;39;20318;-79
2022/09/05 00:55:51;;;;;;;;;;;;;;;17.75;71.61;100262.78;1083912;54;19953;-78
2022/09/05 00:56:59;;;;;;;;;;;;;;;17.73;71.89;100262.13;1083780;54;20465;-78
2022/09/05 00:58:10;;;;;;;;;;;;;;;17.74;71.77;100259.22;1083737;54;19947;-78
2022/09/05 00:59:40;;;;;;;;;;;;;;;17.76;71.21;100253.63;1083643;47;20796;-78
2022/09/05 01:00:51;;;;;;;;;;;;;;;17.77;71.28;100253.44;1082990;54;19958;-78
2022/09/05 01:01:57;;;;;;;;;;;;;;;17.82;71.29;100258.28;1083490;54;19968;-78
2022/09/05 01:03:14;;;;;;;;;;;;;;;17.87;71.16;100255.03;1083807;54;19946;-79
2022/09/05 01:04:23;;;;;;;;;;;;;;;17.86;70.93;100248.75;1083655;54;19947;-79
2022/09/05 01:05:38;;;;;;;;;;;;;;;17.81;71.16;100255.75;1084180;54;19947;-78
2022/09/05 01:06:47;;;;;;;;;;;;;;;17.78;71.58;100251.56;1083796;54;20050;-79
2022/09/05 01:08:02;;;;;;;;;;;;;;;17.78;71.37;100252.44;1083847;54;19955;-78
2022/09/05 01:09:13;;;;;;;;;;;;;;;17.75;71.38;100258.19;1084420;39;20361;-79
2022/09/05 01:10:24;;;;;;;;;;;;;;;17.76;71.68;100251.78;1084120;54;20485;-80
2022/09/05 01:11:34;;;;;;;;;;;;;;;17.80;71.41;100257.63;1085173;54;19945;-79
2022/09/05 01:12:49;;;;;;;;;;;;;;;17.73;71.33;100264.81;1086388;31;20442;-79
2022/09/05 04:10:55;;;;;;;;;;;;;;;16.71;75.57;100239.91;1081714;54;19942;-77
2022/09/05 04:11:59;;;;;;;;;;;;;;;16.69;75.66;100234.69;1082650;54;19947;-77
2022/09/05 04:13:05;;;;;;;;;;;;;;;16.67;75.80;100239.44;1082445;54;19939;-77
2022/09/05 04:14:09;;;;;;;;;;;;;;;16.72;75.08;100240.78;1082698;54;19962;-77
2022/09/05 04:15:17;;;;;;;;;;;;;;;16.74;74.99;100234.16;1083141;39;20305;-77
2022/09/05 04:16:21;;;;;;;;;;;;;;;16.74;75.08;100233.31;1082555;54;19947;-77
2022/09/05 04:17:29;;;;;;;;;;;;;;;16.77;75.23;100238.34;1082555;54;19950;-77
2022/09/05 04:18:35;;;;;;;;;;;;;;;16.80;74.92;100232.59;1082694;54;19945;-77
2022/09/05 04:19:42;;;;;;;;;;;;;;;16.82;74.87;100241.34;1082340;54;19951;-77
2022/09/05 04:20:47;;;;;;;;;;;;;;;16.83;74.80;100243.00;1082470;54;20502;-77
2022/09/05 04:21:53;;;;;;;;;;;;;;;16.86;74.82;100244.53;1082812;54;20467;-78
2022/09/05 04:23:08;;;;;;;;;;;;;;;16.86;74.72;100231.03;1082587;54;19969;-77
2022/09/05 04:24:14;;;;;;;;;;;;;;;16.81;75.31;100236.97;1082545;54;19953;-77
2022/09/05 04:25:17;;;;;;;;;;;;;;;16.83;74.89;100232.22;1082662;54;19946;-77
2022/09/05 04:26:37;;;;;;;;;;;;;;;16.82;75.06;100231.38;1082790;54;19951;-77
2022/09/05 04:27:46;;;;;;;;;;;;;;;16.83;74.69;100238.47;1082467;54;19961;-77
2022/09/05 04:28:54;;;;;;;;;;;;;;;16.85;74.45;100240.97;1082498;54;19970;-77
2022/09/05 04:29:57;;;;;;;;;;;;;;;16.84;74.79;100244.69;1082647;54;19969;-77
2022/09/05 04:31:05;;;;;;;;;;;;;;;16.83;74.72;100243.00;1082608;54;20437;-78
2022/09/05 04:32:12;;;;;;;;;;;;;;;16.84;74.59;100248.25;1082485;54;19947;-78
2022/09/05 04:33:20;;;;;;;;;;;;;;;16.75;75.05;100251.19;1082484;54;19950;-77
2022/09/05 04:34:28;;;;;;;;;;;;;;;16.68;75.35;100248.34;1082516;54;20516;-77
2022/09/05 04:35:36;;;;;;;;;;;;;;;16.61;75.77;100248.25;1082656;54;20440;-77
2022/09/05 04:36:38;;;;;;;;;;;;;;;16.52;76.37;100252.03;1082609;54;19970;-77
2022/09/05 04:37:46;;;;;;;;;;;;;;;16.47;76.93;100251.72;1082593;54;19939;-77
2022/09/05 04:39:04;;;;;;;;;;;;;;;16.44;77.09;100249.38;1083200;39;20427;-76
2022/09/05 04:40:23;;;;;;;;;;;;;;;16.38;77.14;100251.78;1082428;54;19946;-77
2022/09/05 04:41:28;;;;;;;;;;;;;;;16.41;77.02;100255.97;1082580;54;19954;-77
2022/09/05 04:42:32;;;;;;;;;;;;;;;16.43;76.81;100259.31;1082554;54;19947;-77
2022/09/05 04:43:38;;;;;;;;;;;;;;;16.43;77.11;100251.22;1082258;54;19974;-77
2022/09/05 04:44:43;;;;;;;;;;;;;;;16.44;76.70;100254.75;1082569;54;19970;-77
2022/09/05 04:45:52;;;;;;;;;;;;;;;16.45;76.68;100251.03;1082402;54;19953;-77
2022/09/05 04:46:54;;;;;;;;;;;;;;;16.45;76.58;100257.28;1082542;54;19974;-77
2022/09/05 04:48:01;;;;;;;;;;;;;;;16.49;76.63;100255.06;1082440;54;19947;-77
2022/09/05 04:49:06;;;;;;;;;;;;;;;16.47;76.44;100257.97;1082331;54;19981;-77
2022/09/05 04:50:11;;;;;;;;;;;;;;;16.44;76.64;100261.00;1082854;39;20763;-77
2022/09/05 04:51:28;;;;;;;;;;;;;;;16.45;76.52;100264.53;1082515;54;19947;-77
2022/09/05 04:52:47;;;;;;;;;;;;;;;16.36;76.91;100261.88;1082362;54;19953;-77
2022/09/05 04:53:58;;;;;;;;;;;;;;;16.31;77.47;100267.00;1081942;54;19947;-78
2022/09/05 04:55:04;;;;;;;;;;;;;;;16.28;77.73;100267.34;1082705;54;19969;-77
2022/09/05 04:56:08;;;;;;;;;;;;;;;16.27;77.61;100272.91;1082519;54;19947;-77
2022/09/05 04:57:16;;;;;;;;;;;;;;;16.24;77.78;100275.94;1082845;54;19950;-76
2022/09/05 04:58:28;;;;;;;;;;;;;;;16.20;77.85;100268.22;1082619;47;19974;-76
2022/09/05 04:59:32;;;;;;;;;;;;;;;16.25;77.82;100272.25;1082596;54;19946;-76
2022/09/05 05:00:39;;;;;;;;;;;;;;;16.27;77.80;100278.31;1082580;54;20460;-76
2022/09/05 05:01:42;;;;;;;;;;;;;;;16.27;77.45;100276.44;1082621;47;20449;-76
2022/09/05 05:02:47;;;;;;;;;;;;;;;16.31;77.54;100275.09;1082451;54;19946;-76
2022/09/05 05:03:49;;;;;;;;;;;;;;;16.33;77.24;100278.44;1082761;54;19954;-76
2022/09/05 05:05:00;;;;;;;;;;;;;;;16.36;77.13;100282.66;1082549;54;19951;-76
2022/09/05 05:06:05;;;;;;;;;;;;;;;16.40;77.33;100277.72;1083304;39;20348;-76
2022/09/05 05:07:11;;;;;;;;;;;;;;;16.44;77.01;100279.03;1083261;39;20365;-75
2022/09/05 05:08:21;;;;;;;;;;;;;;;16.50;76.51;100272.94;1083062;54;19973;-78
2022/09/05 05:09:25;;;;;;;;;;;;;;;16.59;76.07;100279.97;1083511;54;19947;-75
2022/09/05 05:10:31;;;;;;;;;;;;;;;16.62;75.95;100274.22;1085032;54;19969;-76
2022/09/05 05:11:41;;;;;;;;;;;;;;;16.65;76.04;100273.03;1085626;54;19958;-75
2022/09/05 05:12:51;;;;;;;;;;;;;;;16.69;75.90;100269.78;1085518;54;19954;-76
2022/09/05 05:13:56;;;;;;;;;;;;;;;16.75;75.47;100275.47;1085361;47;19981;-76
2022/09/05 05:15:02;;;;;;;;;;;;;;;16.77;75.47;100270.75;1085895;47;20033;-76
2022/09/05 05:16:08;;;;;;;;;;;;;;;16.79;75.46;100268.72;1085188;47;19969;-76
2022/09/05 05:17:17;;;;;;;;;;;;;;;16.79;75.56;100271.41;1084588;54;19951;-76
2022/09/05 05:18:22;;;;;;;;;;;;;;;16.79;75.82;100274.13;1084309;54;19962;-76
2022/09/05 05:19:28;;;;;;;;;;;;;;;16.76;76.27;100269.06;1084441;54;19974;-77
2022/09/05 05:20:31;;;;;;;;;;;;;;;16.75;76.10;100262.84;1083768;39;20373;-76
2022/09/05 05:21:35;;;;;;;;;;;;;;;16.76;76.00;100264.53;1082497;54;19947;-76
2022/09/05 05:22:45;;;;;;;;;;;;;;;16.82;75.38;100268.34;1082574;54;19977;-76
2022/09/05 05:23:51;;;;;;;;;;;;;;;16.78;75.61;100272.44;1082600;54;19947;-76
2022/09/05 05:24:55;;;;;;;;;;;;;;;16.82;75.40;100271.88;1082516;54;19951;-76
2022/09/05 05:26:01;;;;;;;;;;;;;;;16.85;75.28;100267.97;1082855;39;20459;-76
2022/09/05 05:27:07;;;;;;;;;;;;;;;16.84;75.04;100277.09;1082537;54;19977;-76
2022/09/05 05:28:12;;;;;;;;;;;;;;;16.82;75.34;100273.72;1082440;54;19958;-76
2022/09/05 05:29:23;;;;;;;;;;;;;;;16.87;75.21;100279.44;1082380;54;19970;-77
2022/09/05 05:30:26;;;;;;;;;;;;;;;16.94;74.78;100279.59;1082443;54;20469;-77
2022/09/05 05:31:31;;;;;;;;;;;;;;;16.97;74.47;100276.50;1082626;54;19947;-77
2022/09/05 05:32:35;;;;;;;;;;;;;;;17.00;74.75;100276.16;1082604;54;19958;-76
2022/09/05 05:33:40;;;;;;;;;;;;;;;17.04;74.34;100276.63;1082695;54;19954;-76
2022/09/05 05:34:45;;;;;;;;;;;;;;;17.08;74.19;100280.66;1082757;54;19958;-76
2022/09/05 05:35:49;;;;;;;;;;;;;;;17.10;73.98;100273.19;1082528;54;21086;-77
2022/09/05 05:36:53;;;;;;;;;;;;;;;17.11;73.79;100282.97;1082508;54;19945;-77
2022/09/05 05:38:03;;;;;;;;;;;;;;;17.14;73.90;100288.84;1082489;54;19942;-77
2022/09/05 05:39:06;;;;;;;;;;;;;;;17.15;73.72;100284.31;1082503;54;19947;-76
2022/09/05 05:40:12;;;;;;;;;;;;;;;17.16;73.65;100277.91;1082563;54;19962;-77
2022/09/05 05:41:18;;;;;;;;;;;;;;;17.11;73.49;100282.97;1082492;54;19974;-77
2022/09/05 05:42:23;;;;;;;;;;;;;;;17.13;73.46;100275.53;1082509;54;19994;-77
2022/09/05 05:43:26;;;;;;;;;;;;;;;17.14;73.84;100278.06;1082683;54;19947;-77
2022/09/05 05:44:34;;;;;;;;;;;;;;;17.11;74.26;100280.28;1082480;54;19974;-77
2022/09/05 05:45:35;;;;;;;;;;;;;;;17.13;73.82;100281.81;1082457;54;19961;-77
2022/09/05 05:46:40;;;;;;;;;;;;;;;17.17;73.95;100292.22;1082668;54;19981;-77
2022/09/05 05:47:43;;;;;;;;;;;;;;;17.21;73.43;100288.97;1083348;54;19970;-76
2022/09/05 05:48:48;;;;;;;;;;;;;;;17.19;74.01;100290.19;1083815;54;19953;-78
2022/09/05 05:50:00;;;;;;;;;;;;;;;17.19;74.18;100293.75;1083152;47;20465;-76
2022/09/05 05:51:16;;;;;;;;;;;;;;;17.22;73.82;100290.66;1083218;54;19950;-77
2022/09/05 05:52:37;;;;;;;;;;;;;;;17.21;74.34;100286.28;1082696;54;19970;-78
2022/09/05 05:53:45;;;;;;;;;;;;;;;17.23;74.03;100299.63;1082567;54;19946;-77
2022/09/05 05:54:51;;;;;;;;;;;;;;;17.26;74.19;100302.78;1085135;47;19946;-76
2022/09/05 05:56:00;;;;;;;;;;;;;;;17.29;73.94;100302.41;1086336;54;19962;-76
2022/09/05 05:57:20;;;;;;;;;;;;;;;17.33;73.84;100302.91;1085477;54;19951;-78
2022/09/05 05:58:28;;;;;;;;;;;;;;;17.16;74.64;100304.91;1083816;39;20391;-76
2022/09/05 05:59:46;;;;;;;;;;;;;;;17.14;74.95;100304.25;1083389;54;19947;-76
2022/09/05 06:01:02;;;;;;;;;;;;;;;17.21;74.90;100301.66;1084128;54;20540;-76
2022/09/05 06:02:14;;;;;;;;;;;;;;;17.28;74.44;100302.59;1086986;46;19946;-78
2022/09/05 06:03:42;;;;;;;;;;;;;;;17.31;74.42;100300.38;1086150;54;19942;-78
2022/09/05 06:05:09;;;;;;;;;;;;;;;17.36;74.02;100304.41;1084730;54;19946;-76
2022/09/05 06:06:23;;;;;;;;;;;;;;;17.36;74.01;100315.22;1084464;54;19975;-76
2022/09/05 06:07:32;;;;;;;;;;;;;;;17.17;75.02;100308.44;1085061;54;19954;-78
2022/09/05 06:08:46;;;;;;;;;;;;;;;17.12;75.15;100308.97;1084440;54;19950;-77
2022/09/05 06:10:02;;;;;;;;;;;;;;;17.15;75.29;100308.63;1084616;39;20632;-79
2022/09/05 06:11:21;;;;;;;;;;;;;;;17.13;75.15;100311.50;1084334;54;19958;-79
2022/09/05 06:12:37;;;;;;;;;;;;;;;17.14;75.15;100306.94;1083765;54;20704;-78
2022/09/05 06:13:57;;;;;;;;;;;;;;;17.15;75.25;100312.16;1083988;54;19953;-77
2022/09/05 06:15:20;;;;;;;;;;;;;;;17.11;75.18;100310.00;1083389;54;19951;-78
2022/09/05 06:16:45;;;;;;;;;;;;;;;17.25;74.74;100306.50;1084457;39;20511;-77
2022/09/05 06:18:07;;;;;;;;;;;;;;;17.33;74.30;100308.31;1083926;54;19970;-77
2022/09/05 06:19:28;;;;;;;;;;;;;;;17.38;73.94;100300.47;1083933;54;19955;-76
2022/09/05 06:20:47;;;;;;;;;;;;;;;17.43;73.86;100303.47;1083889;54;19946;-77
2022/09/05 06:21:55;;;;;;;;;;;;;;;17.48;73.59;100307.47;1083789;54;19951;-78
2022/09/05 06:23:18;;;;;;;;;;;;;;;17.50;73.52;100303.56;1083608;54;20043;-76
2022/09/05 06:24:34;;;;;;;;;;;;;;;17.53;73.49;100292.41;1083757;46;19966;-76
2022/09/05 06:25:49;;;;;;;;;;;;;;;17.56;73.21;100302.00;1083701;54;19970;-77
2022/09/05 06:27:02;;;;;;;;;;;;;;;17.62;73.04;100296.69;1083707;54;19961;-75
2022/09/05 06:28:10;;;;;;;;;;;;;;;17.68;73.26;100295.13;1083613;54;19947;-78
2022/09/05 06:29:22;;;;;;;;;;;;;;;17.70;72.89;100292.22;1083589;54;19950;-77
2022/09/05 06:30:24;;;;;;;;;;;;;;;17.75;72.92;100290.63;1083589;54;19950;-77
2022/09/05 06:31:52;;;;;;;;;;;;;;;17.81;72.90;100290.91;1083512;54;19954;-76
2022/09/05 06:33:10;;;;;;;;;;;;;;;17.85;72.41;100294.94;1083616;54;19947;-77
2022/09/05 06:34:20;;;;;;;;;;;;;;;17.81;72.49;100294.47;1083824;39;20341;-78
2022/09/05 06:35:28;;;;;;;;;;;;;;;17.80;72.65;100300.91;1083601;54;19958;-78
2022/09/05 06:36:47;;;;;;;;;;;;;;;17.84;72.39;100294.09;1083271;54;19977;-78
2022/09/05 06:37:57;;;;;;;;;;;;;;;17.86;72.44;100292.03;1083515;54;19950;-77
2022/09/05 06:39:06;;;;;;;;;;;;;;;17.90;72.43;100290.66;1083547;54;19946;-79
2022/09/05 06:40:15;;;;;;;;;;;;;;;17.97;72.15;100289.91;1083585;54;20437;-77
2022/09/05 06:41:21;;;;;;;;;;;;;;;18.01;72.12;100296.66;1083668;54;19946;-76
2022/09/05 06:42:28;;;;;;;;;;;;;;;18.04;72.04;100289.00;1083828;39;20439;-76
2022/09/05 06:43:34;;;;;;;;;;;;;;;18.03;71.71;100291.88;1083469;54;19970;-76
2022/09/05 06:44:41;;;;;;;;;;;;;;;18.05;71.57;100297.94;1083239;54;19946;-77
2022/09/05 06:45:49;;;;;;;;;;;;;;;18.07;71.64;100295.88;1083355;46;20037;-77
2022/09/05 06:46:56;;;;;;;;;;;;;;;18.11;71.51;100294.50;1083436;54;19947;-76
2022/09/05 06:48:02;;;;;;;;;;;;;;;18.15;71.61;100290.38;1083448;54;19946;-77
2022/09/05 06:49:16;;;;;;;;;;;;;;;18.15;71.08;100292.25;1083814;39;20334;-77
2022/09/05 06:50:18;;;;;;;;;;;;;;;18.17;71.12;100301.03;1083366;54;19947;-76
2022/09/05 06:51:45;;;;;;;;;;;;;;;18.19;71.19;100294.38;1083375;54;19946;-76
2022/09/05 06:53:13;;;;;;;;;;;;;;;18.27;71.08;100300.72;1083381;54;19969;-79
2022/09/05 06:54:35;;;;;;;;;;;;;;;18.28;71.02;100307.81;1082612;54;19994;-77
2022/09/05 06:55:46;;;;;;;;;;;;;;;18.33;70.83;100295.38;1082835;54;19946;-78
2022/09/05 06:56:56;;;;;;;;;;;;;;;18.35;70.56;100300.59;1083354;54;19947;-79
2022/09/05 06:58:21;;;;;;;;;;;;;;;18.37;70.59;100303.97;1083292;54;19950;-78
2022/09/05 06:59:39;;;;;;;;;;;;;;;18.39;70.26;100302.72;1082581;54;19947;-77
2022/09/05 07:00:45;;;;;;;;;;;;;;;18.45;70.08;100301.13;1083385;54;19938;-76
2022/09/05 07:01:54;;;;;;;;;;;;;;;18.50;69.99;100311.38;1084042;39;20352;-76
2022/09/05 07:03:13;;;;;;;;;;;;;;;18.44;70.03;100307.56;1083665;54;19938;-77
2022/09/05 07:04:27;;;;;;;;;;;;;;;18.46;70.15;100310.94;1083407;54;19953;-80
2022/09/05 07:05:34;;;;;;;;;;;;;;;18.49;69.67;100313.28;1082907;54;19947;-78
2022/09/05 07:06:46;;;;;;;;;;;;;;;18.52;69.67;100307.47;1083365;54;19970;-76
2022/09/05 07:07:50;;;;;;;;;;;;;;;18.56;69.73;100307.94;1083841;39;20353;-77
2022/09/05 07:08:57;;;;;;;;;;;;;;;18.51;69.13;100310.38;1083286;54;19951;-76
2022/09/05 07:10:02;;;;;;;;;;;;;;;18.55;69.05;100306.25;1083831;39;20390;-78
2022/09/05 07:11:09;;;;;;;;;;;;;;;18.50;69.41;100306.84;1083162;54;19947;-78
2022/09/05 07:12:16;;;;;;;;;;;;;;;18.44;69.48;100312.16;1083129;54;20409;-77
2022/09/05 07:13:22;;;;;;;;;;;;;;;18.58;69.55;100313.16;1083151;54;19946;-78
2022/09/05 07:14:27;;;;;;;;;;;;;;;18.65;69.33;100314.06;1083270;54;19950;-76
2022/09/05 07:15:34;;;;;;;;;;;;;;;18.72;69.12;100317.66;1083347;54;19951;-76
2022/09/05 07:16:41;;;;;;;;;;;;;;;18.81;68.78;100310.28;1083551;54;19961;-76
2022/09/05 07:17:49;;;;;;;;;;;;;;;18.82;68.35;100311.97;1083310;54;19946;-77
2022/09/05 07:18:58;;;;;;;;;;;;;;;18.86;68.66;100303.25;1083592;54;19954;-76
2022/09/05 07:20:03;;;;;;;;;;;;;;;18.96;68.61;100311.06;1083152;54;19942;-76
2022/09/05 07:21:09;;;;;;;;;;;;;;;19.01;68.56;100308.66;1083140;54;19946;-77
2022/09/05 07:22:15;;;;;;;;;;;;;;;19.02;68.33;100307.63;1083115;54;19969;-77
2022/09/05 07:23:27;;;;;;;;;;;;;;;18.94;67.06;100305.00;1083327;54;19969;-77
2022/09/05 07:24:30;;;;;;;;;;;;;;;18.91;66.08;100312.66;1083126;54;19977;-75
2022/09/05 07:25:34;;;;;;;;;;;;;;;18.94;65.85;100302.28;1083066;54;19938;-77
2022/09/05 07:26:37;;;;;;;;;;;;;;;18.98;66.02;100305.47;1083144;54;19938;-76
2022/09/05 07:27:45;;;;;;;;;;;;;;;19.02;66.03;100306.75;1083294;54;19946;-78
2022/09/05 07:28:51;;;;;;;;;;;;;;;19.07;65.80;100309.75;1083128;54;19950;-78
2022/09/05 07:29:56;;;;;;;;;;;;;;;19.16;66.27;100308.56;1083113;54;19947;-78
2022/09/05 07:31:02;;;;;;;;;;;;;;;19.26;65.76;100310.09;1083816;54;19946;-77
2022/09/05 07:32:06;;;;;;;;;;;;;;;19.16;65.11;100313.13;1083599;54;19958;-77
2022/09/05 07:33:11;;;;;;;;;;;;;;;19.24;65.66;100304.03;1083468;54;19946;-77
2022/09/05 07:34:18;;;;;;;;;;;;;;;19.35;65.49;100317.06;1087608;54;19938;-78
2022/09/05 07:35:28;;;;;;;;;;;;;;;19.37;64.92;100312.25;1090134;46;19946;-81
2022/09/05 07:36:31;;;;;;;;;;;;;;;19.45;65.09;100304.00;1087687;54;19971;-78
2022/09/05 07:37:39;;;;;;;;;;;;;;;19.42;64.80;100314.38;1085882;54;19997;-77
2022/09/05 07:38:44;;;;;;;;;;;;;;;19.42;64.59;100315.25;1083167;54;19957;-78
2022/09/05 07:39:50;;;;;;;;;;;;;;;19.54;64.73;100310.09;1083068;54;19953;-75
2022/09/05 07:40:56;;;;;;;;;;;;;;;19.73;64.49;100313.16;1083102;54;19946;-77
2022/09/05 07:42:01;;;;;;;;;;;;;;;19.88;64.19;100311.22;1083747;54;19938;-77
2022/09/05 07:43:07;;;;;;;;;;;;;;;19.99;63.08;100307.09;1083536;47;19946;-77
2022/09/05 07:44:10;;;;;;;;;;;;;;;20.12;63.28;100306.31;1083146;54;19978;-78
2022/09/05 07:45:16;;;;;;;;;;;;;;;20.25;62.85;100302.81;1083240;47;19950;-76
2022/09/05 07:46:22;;;;;;;;;;;;;;;20.41;62.52;100301.63;1083420;54;19959;-75
2022/09/05 07:47:26;;;;;;;;;;;;;;;20.59;62.43;100303.78;1082937;54;19970;-76
2022/09/05 07:48:33;;;;;;;;;;;;;;;20.74;62.36;100303.63;1082815;54;20460;-78
2022/09/05 07:49:36;;;;;;;;;;;;;;;20.80;61.34;100302.81;1082919;54;19939;-77
2022/09/05 07:50:42;;;;;;;;;;;;;;;20.96;61.43;100295.31;1082968;54;19946;-77
2022/09/05 07:51:52;;;;;;;;;;;;;;;21.09;61.35;100300.75;1083664;39;20396;-77
2022/09/05 07:52:56;;;;;;;;;;;;;;;21.19;60.77;100293.03;1083224;54;19962;-77
2022/09/05 07:54:17;;;;;;;;;;;;;;;21.31;60.18;100295.94;1083239;54;20492;-80
2022/09/05 07:55:22;;;;;;;;;;;;;;;21.40;59.23;100303.88;1083865;54;19947;-77
2022/09/05 07:56:41;;;;;;;;;;;;;;;21.36;59.10;100295.31;1086385;46;19945;-78
2022/09/05 07:57:44;;;;;;;;;;;;;;;21.53;58.74;100295.72;1086602;46;19947;-77
2022/09/05 08:00:20;;;;;;;;;;;;;;;21.90;57.32;100301.56;1085978;54;19939;-77
2022/09/05 08:04:29;;;;;;;;;;;;;;;22.10;56.94;100293.31;1085594;54;19945;-76
2022/09/05 08:05:39;;;;;;;;;;;;;;;22.22;55.81;100298.91;1085472;54;19938;-77
2022/09/05 08:06:40;;;;;;;;;;;;;;;22.36;56.05;100299.69;1085228;47;19950;-77
2022/09/05 08:07:50;;;;;;;;;;;;;;;22.54;56.03;100288.13;1083444;39;20356;-79
2022/09/05 08:08:55;;;;;;;;;;;;;;;22.76;55.48;100293.22;1083557;54;19939;-77
2022/09/05 08:09:58;;;;;;;;;;;;;;;22.95;55.10;100301.50;1083479;54;19947;-76
2022/09/05 08:11:07;;;;;;;;;;;;;;;23.15;54.60;100296.69;1083431;54;19939;-76
2022/09/05 08:12:11;;;;;;;;;;;;;;;23.31;54.79;100306.25;1083137;54;19947;-78
2022/09/05 08:13:29;;;;;;;;;;;;;;;23.36;53.83;100300.13;1083128;54;20440;-79
2022/09/05 08:14:43;;;;;;;;;;;;;;;23.45;53.27;100296.06;1084087;39;20427;-78
2022/09/05 08:15:47;;;;;;;;;;;;;;;23.61;53.80;100293.84;1083390;54;19945;-78
2022/09/05 08:16:49;;;;;;;;;;;;;;;23.76;53.17;100296.16;1083559;54;19938;-77
2022/09/05 08:17:58;;;;;;;;;;;;;;;23.73;52.48;100302.91;1083953;54;20525;-77
2022/09/05 08:19:14;;;;;;;;;;;;;;;23.82;52.95;100296.09;1083458;54;19947;-78
2022/09/05 08:20:23;;;;;;;;;;;;;;;23.99;52.18;100295.56;1083496;54;19943;-77
2022/09/05 08:21:30;;;;;;;;;;;;;;;24.14;51.76;100298.72;1083811;54;19946;-77
2022/09/05 08:22:36;;;;;;;;;;;;;;;24.14;50.36;100292.41;1083682;54;19950;-77
2022/09/05 08:23:49;;;;;;;;;;;;;;;24.14;49.76;100287.81;1083371;54;19947;-78
2022/09/05 08:24:56;;;;;;;;;;;;;;;23.93;49.80;100291.81;1083117;54;19953;-77
2022/09/05 08:26:18;;;;;;;;;;;;;;;23.82;49.75;100284.38;1083558;54;19947;-77
2022/09/05 08:27:25;;;;;;;;;;;;;;;23.75;50.47;100283.63;1086899;54;19943;-78
2022/09/05 08:28:28;;;;;;;;;;;;;;;23.79;50.17;100284.81;1087629;46;19954;-80
2022/09/05 08:29:34;;;;;;;;;;;;;;;23.65;50.42;100284.13;1087249;54;19938;-80
2022/09/05 08:30:38;;;;;;;;;;;;;;;23.87;50.41;100287.25;1087658;54;19975;-79
2022/09/05 08:31:45;;;;;;;;;;;;;;;24.06;50.07;100285.38;1087882;54;19927;-78
2022/09/05 08:32:48;;;;;;;;;;;;;;;24.20;49.73;100280.59;1086822;54;19946;-78
2022/09/05 08:33:55;;;;;;;;;;;;;;;24.41;49.95;100281.16;1086368;54;19939;-77
2022/09/05 08:35:05;;;;;;;;;;;;;;;24.47;48.87;100280.25;1086821;54;19938;-79
2022/09/05 08:36:16;;;;;;;;;;;;;;;24.71;49.16;100281.19;1085613;54;19938;-78
2022/09/05 08:37:21;;;;;;;;;;;;;;;24.85;48.40;100280.97;1085841;39;20264;-81
2022/09/05 08:38:23;;;;;;;;;;;;;;;24.99;48.34;100281.59;1086383;46;19962;-79
2022/09/05 08:39:34;;;;;;;;;;;;;;;25.05;47.53;100278.75;1086801;54;19939;-80
2022/09/05 08:41:56;;;;;;;;;;;;;;;24.69;48.07;100277.84;1085527;54;19957;-79
2022/09/05 08:42:59;;;;;;;;;;;;;;;24.89;47.99;100279.44;1084135;54;19947;-80
2022/09/05 08:44:11;;;;;;;;;;;;;;;25.14;47.99;100271.06;1083432;54;19938;-78
2022/09/05 08:45:19;;;;;;;;;;;;;;;25.21;47.81;100276.41;1083408;54;19958;-79
2022/09/05 08:46:24;;;;;;;;;;;;;;;25.28;47.77;100281.75;1083377;54;19939;-78
2022/09/05 08:47:31;;;;;;;;;;;;;;;25.32;47.92;100272.00;1082560;54;19966;-78
2022/09/05 08:48:39;;;;;;;;;;;;;;;25.34;47.58;100275.34;1082969;54;19946;-81
2022/09/05 08:49:56;;;;;;;;;;;;;;;25.40;47.49;100277.16;1082554;54;19939;-77
2022/09/05 08:51:06;;;;;;;;;;;;;;;25.43;47.28;100275.84;1082548;54;19954;-79
2022/09/05 08:52:12;;;;;;;;;;;;;;;25.39;47.58;100275.47;1082756;54;19947;-78
2022/09/05 08:53:19;;;;;;;;;;;;;;;25.41;47.20;100272.53;1082597;54;19981;-81
2022/09/05 08:54:26;;;;;;;;;;;;;;;25.41;47.39;100261.59;1082563;54;19962;-79
2022/09/05 08:55:41;;;;;;;;;;;;;;;25.30;47.28;100263.19;1083318;39;20786;-78
2022/09/05 08:56:50;;;;;;;;;;;;;;;25.25;47.48;100268.56;1083133;54;19957;-78